Time;durP1;ratioP1;P1;durP2;ratioP2;P2;SDS_P1;SDS_P2;PMS_P1;PMS_P2;Temp;Humidity;BMP_temperature;BMP_pressure;BME280_temperature;BME280_humidity;BME280_pressure;Samples;Min_cycle;Max_cycle;Signal;HPM_P1;HPM_P2
2022/10/22 00:00:09;;;;;;;8.02;5.18;;;20.20;99.90;;;;;;4141559;28;179319;-76
2022/10/22 00:02:14;;;;;;;8.35;5.85;;;20.10;99.90;;;;;;4140503;28;20679;-76
2022/10/22 00:04:17;;;;;;;13.98;6.60;;;20.10;99.90;;;;;;4148575;28;20229;-76
2022/10/22 00:06:20;;;;;;;9.57;5.53;;;20.10;99.90;;;;;;4148323;28;20271;-76
2022/10/22 00:08:23;;;;;;;8.73;5.75;;;20.20;99.90;;;;;;4148517;28;20271;-76
2022/10/22 00:10:25;;;;;;;8.70;5.13;;;20.10;99.90;;;;;;4148558;28;20275;-76
2022/10/22 00:12:27;;;;;;;10.32;5.90;;;20.10;99.90;;;;;;4148540;28;20257;-76
2022/10/22 00:14:29;;;;;;;9.35;5.40;;;20.10;99.90;;;;;;4141482;28;20221;-77
2022/10/22 00:16:32;;;;;;;9.95;5.97;;;20.10;99.90;;;;;;4148190;28;20241;-76
2022/10/22 00:18:34;;;;;;;9.57;5.78;;;20.10;99.90;;;;;;4148177;28;20288;-76
2022/10/22 00:20:36;;;;;;;8.82;5.80;;;20.10;99.90;;;;;;4148260;28;20256;-77
2022/10/22 00:22:40;;;;;;;10.25;6.07;;;20.10;99.90;;;;;;4138342;28;20225;-76
2022/10/22 00:24:42;;;;;;;8.52;5.22;;;20.10;99.90;;;;;;4148184;28;20728;-76
2022/10/22 00:26:44;;;;;;;8.43;5.63;;;20.10;99.90;;;;;;4147947;28;20263;-76
2022/10/22 00:28:47;;;;;;;9.20;5.60;;;20.10;99.90;;;;;;4148021;28;20619;-76
2022/10/22 00:30:54;;;;;;;7.50;5.22;;;20.10;99.90;;;;;;4148005;28;20228;-76
2022/10/22 00:32:57;;;;;;;8.52;5.45;;;20.10;99.90;;;;;;4147827;28;20294;-76
2022/10/22 00:34:59;;;;;;;10.10;6.10;;;20.10;99.90;;;;;;4148032;28;20225;-76
2022/10/22 00:37:01;;;;;;;10.60;5.68;;;20.10;99.90;;;;;;4147600;28;20240;-76
2022/10/22 00:39:05;;;;;;;10.07;6.05;;;20.10;99.90;;;;;;4148047;28;20279;-76
2022/10/22 00:41:07;;;;;;;10.05;5.97;;;20.10;99.90;;;;;;4147855;28;20221;-76
2022/10/22 00:43:11;;;;;;;9.18;5.38;;;20.10;99.90;;;;;;4147537;28;20217;-76
2022/10/22 00:45:24;;;;;;;8.77;5.50;;;20.10;99.90;;;;;;4147510;28;20282;-76
2022/10/22 00:47:30;;;;;;;9.95;5.93;;;20.10;99.90;;;;;;4145455;28;20852;-76
2022/10/22 00:49:32;;;;;;;9.95;5.40;;;20.10;99.90;;;;;;4147744;28;20217;-76
2022/10/22 00:51:36;;;;;;;10.10;5.55;;;20.10;99.90;;;;;;4147657;28;20217;-76
2022/10/22 00:53:41;;;;;;;9.00;5.60;;;20.10;99.90;;;;;;4147466;28;20228;-76
2022/10/22 00:55:48;;;;;;;9.15;5.43;;;20.00;99.90;;;;;;4147476;28;20590;-76
2022/10/22 00:57:52;;;;;;;9.77;5.47;;;20.00;99.90;;;;;;4147574;28;20726;-76
2022/10/22 00:59:55;;;;;;;8.65;4.93;;;20.00;99.90;;;;;;4147549;28;20271;-76
2022/10/22 01:01:58;;;;;;;8.10;5.03;;;20.00;99.90;;;;;;4115425;28;20249;-76
2022/10/22 01:04:01;;;;;;;7.32;5.47;;;20.00;99.90;;;;;;4115743;28;20274;-76
2022/10/22 01:06:05;;;;;;;10.48;5.43;;;20.10;99.90;;;;;;4115433;28;20281;-76
2022/10/22 01:08:13;;;;;;;8.75;5.20;;;20.00;99.90;;;;;;4115505;28;20222;-76
2022/10/22 01:10:34;;;;;;;10.88;5.95;;;20.00;99.90;;;;;;4115464;28;20268;-75
2022/10/22 01:12:46;;;;;;;8.88;5.38;;;20.00;99.90;;;;;;4115405;28;20363;-76
2022/10/22 01:15:04;;;;;;;10.45;5.90;;;20.00;99.90;;;;;;4115195;28;20226;-75
2022/10/22 01:17:09;;;;;;;8.77;5.03;;;20.00;99.90;;;;;;4115014;28;20308;-76
2022/10/22 01:19:29;;;;;;;8.02;5.38;;;20.10;99.90;;;;;;4115205;28;20638;-76
2022/10/22 01:21:34;;;;;;;9.30;5.32;;;20.00;99.90;;;;;;4115269;28;20565;-76
2022/10/22 01:24:08;;;;;;;9.02;5.40;;;20.10;99.90;;;;;;4115128;28;20273;-76
2022/10/22 01:26:20;;;;;;;7.93;5.07;;;20.00;99.90;;;;;;4111775;28;20230;-76
2022/10/22 01:28:40;;;;;;;8.00;4.85;;;20.00;99.90;;;;;;4115151;28;20254;-76
2022/10/22 01:30:45;;;;;;;8.20;5.50;;;20.10;99.90;;;;;;4115355;28;20222;-76
2022/10/22 01:32:51;;;;;;;9.43;5.40;;;20.00;99.90;;;;;;4115095;28;20285;-76
2022/10/22 01:34:58;;;;;;;8.50;5.07;;;20.00;99.90;;;;;;4114973;28;20225;-76
2022/10/22 01:37:03;;;;;;;10.32;5.57;;;20.00;99.90;;;;;;4115091;28;20254;-76
2022/10/22 01:39:07;;;;;;;9.43;5.53;;;20.00;99.90;;;;;;4115014;28;20296;-76
2022/10/22 01:41:09;;;;;;;7.32;5.38;;;20.00;99.90;;;;;;4115090;28;20226;-76
2022/10/22 01:43:13;;;;;;;8.88;5.22;;;20.00;99.90;;;;;;4114953;28;20258;-76
2022/10/22 01:45:16;;;;;;;10.23;5.22;;;20.00;99.90;;;;;;4114897;28;20667;-76
2022/10/22 01:47:28;;;;;;;7.90;5.30;;;20.00;99.90;;;;;;4114894;28;20222;-76
2022/10/22 01:49:43;;;;;;;9.50;5.07;;;20.00;99.90;;;;;;4108099;28;20226;-76
2022/10/22 01:51:57;;;;;;;7.60;5.38;;;20.00;99.90;;;;;;4114577;28;20370;-76
2022/10/22 01:54:06;;;;;;;7.95;5.22;;;20.00;99.90;;;;;;4114652;28;20226;-76
2022/10/22 01:56:22;;;;;;;8.50;4.88;;;20.00;99.90;;;;;;4114856;28;20277;-76
2022/10/22 01:58:37;;;;;;;9.35;5.70;;;20.00;99.90;;;;;;4114144;28;20745;-76
2022/10/22 02:00:47;;;;;;;7.28;5.35;;;20.00;99.90;;;;;;4125661;28;20391;-76
2022/10/22 02:02:57;;;;;;;7.57;5.20;;;20.00;99.90;;;;;;4146498;28;20224;-77
2022/10/22 02:05:07;;;;;;;7.20;5.05;;;19.90;99.90;;;;;;4146542;28;20574;-76
2022/10/22 02:07:12;;;;;;;5.82;4.53;;;20.00;99.90;;;;;;4146670;28;20247;-76
2022/10/22 02:09:17;;;;;;;7.35;4.85;;;20.00;99.90;;;;;;4146513;28;20220;-77
2022/10/22 02:11:19;;;;;;;9.63;4.78;;;20.00;99.90;;;;;;4146483;28;20604;-76
2022/10/22 02:13:25;;;;;;;8.50;5.00;;;20.00;99.90;;;;;;4146751;28;20232;-76
2022/10/22 02:15:32;;;;;;;9.63;5.03;;;20.00;99.90;;;;;;4146649;28;20275;-76
2022/10/22 02:17:38;;;;;;;8.48;4.40;;;20.00;99.90;;;;;;4146282;28;20713;-76
2022/10/22 02:19:46;;;;;;;8.68;5.07;;;20.00;99.90;;;;;;4146406;28;20356;-76
2022/10/22 02:21:49;;;;;;;7.93;4.82;;;20.00;99.90;;;;;;4145169;28;20212;-76
2022/10/22 02:23:51;;;;;;;9.45;4.65;;;19.90;99.90;;;;;;4146397;28;21108;-76
2022/10/22 02:25:59;;;;;;;8.23;4.80;;;20.00;99.90;;;;;;4146415;28;20225;-76
2022/10/22 02:28:09;;;;;;;8.68;4.63;;;19.90;99.90;;;;;;4146398;28;20718;-76
2022/10/22 02:30:14;;;;;;;8.40;4.93;;;19.90;99.90;;;;;;4145965;28;20287;-76
2022/10/22 02:32:21;;;;;;;9.75;4.78;;;19.90;99.90;;;;;;4146235;28;20348;-75
2022/10/22 02:34:30;;;;;;;7.57;4.90;;;19.90;99.90;;;;;;4144613;28;20216;-76
2022/10/22 02:36:32;;;;;;;8.60;4.80;;;19.90;99.90;;;;;;4146610;28;20209;-76
2022/10/22 02:38:36;;;;;;;7.13;4.95;;;19.90;99.90;;;;;;4146317;28;20624;-76
2022/10/22 02:40:38;;;;;;;7.55;4.68;;;19.90;99.90;;;;;;4146217;28;20630;-76
2022/10/22 02:42:41;;;;;;;6.90;4.63;;;19.90;99.90;;;;;;4146187;28;20224;-76
2022/10/22 02:44:44;;;;;;;7.70;4.63;;;19.90;99.90;;;;;;4145907;28;20578;-76
2022/10/22 02:46:46;;;;;;;6.47;4.25;;;19.90;99.90;;;;;;4146048;28;20646;-76
2022/10/22 02:48:48;;;;;;;7.60;4.43;;;19.90;99.90;;;;;;4145957;28;20213;-76
2022/10/22 02:50:52;;;;;;;7.30;4.43;;;19.90;99.90;;;;;;4146241;28;20225;-77
2022/10/22 02:52:54;;;;;;;6.97;4.50;;;19.90;99.90;;;;;;4146100;28;20287;-76
2022/10/22 02:54:56;;;;;;;7.82;4.38;;;19.90;99.90;;;;;;4146121;28;20618;-76
2022/10/22 02:56:59;;;;;;;6.88;4.47;;;19.90;99.90;;;;;;4145796;28;20299;-77
2022/10/22 02:59:01;;;;;;;6.13;4.40;;;19.90;99.90;;;;;;4145934;28;20221;-77
2022/10/22 03:01:03;;;;;;;8.50;5.65;;;19.90;99.90;;;;;;4145664;28;20229;-76
2022/10/22 03:03:05;;;;;;;6.18;4.30;;;19.90;99.90;;;;;;4146010;28;20267;-77
2022/10/22 03:05:09;;;;;;;6.00;4.45;;;19.90;99.90;;;;;;4146437;28;20217;-77
2022/10/22 03:07:12;;;;;;;7.38;4.22;;;19.90;99.90;;;;;;4146250;28;20615;-77
2022/10/22 03:09:15;;;;;;;7.90;4.25;;;19.90;99.90;;;;;;4145984;28;20271;-77
2022/10/22 03:11:17;;;;;;;8.32;4.50;;;19.90;99.90;;;;;;4146078;28;20267;-77
2022/10/22 03:13:19;;;;;;;6.93;4.35;;;19.90;99.90;;;;;;4143855;28;20217;-77
2022/10/22 03:15:21;;;;;;;9.20;4.68;;;19.90;99.90;;;;;;4145726;28;20271;-77
2022/10/22 03:17:24;;;;;;;7.97;4.95;;;19.90;99.90;;;;;;4146010;28;20237;-77
2022/10/22 03:19:26;;;;;;;5.55;4.10;;;19.90;99.90;;;;;;4145992;28;20336;-77
2022/10/22 03:21:34;;;;;;;7.18;4.00;;;19.90;99.90;;;;;;4143401;28;20223;-77
2022/10/22 03:23:39;;;;;;;6.78;4.68;;;19.90;99.90;;;;;;4146055;28;20610;-77
2022/10/22 03:25:44;;;;;;;9.27;4.70;;;19.90;99.90;;;;;;4145677;28;20271;-77
2022/10/22 03:27:47;;;;;;;7.97;4.38;;;19.90;99.90;;;;;;4145593;28;20217;-77
2022/10/22 03:29:51;;;;;;;5.25;3.92;;;19.80;99.90;;;;;;4145778;28;20225;-77
2022/10/22 03:31:54;;;;;;;6.85;4.10;;;19.90;99.90;;;;;;4145928;28;20225;-77
2022/10/22 03:33:56;;;;;;;7.45;4.63;;;19.80;99.90;;;;;;4145129;28;20229;-77
2022/10/22 03:36:00;;;;;;;6.72;4.00;;;19.80;99.90;;;;;;4145778;28;20283;-77
2022/10/22 03:38:02;;;;;;;6.10;4.03;;;19.80;99.90;;;;;;4146078;28;20713;-76
2022/10/22 03:40:10;;;;;;;4.88;3.83;;;19.80;99.90;;;;;;4146004;28;20623;-76
2022/10/22 03:42:13;;;;;;;7.05;3.90;;;19.80;99.90;;;;;;4146027;28;20603;-77
2022/10/22 03:44:16;;;;;;;6.95;4.35;;;19.80;99.90;;;;;;4144984;28;20225;-77
2022/10/22 03:46:19;;;;;;;7.97;4.30;;;19.80;99.90;;;;;;4145680;28;20271;-77
2022/10/22 03:48:21;;;;;;;7.82;4.10;;;19.80;99.90;;;;;;4141688;28;20313;-77
2022/10/22 03:50:24;;;;;;;6.68;4.47;;;19.80;99.90;;;;;;4143411;28;20290;-77
2022/10/22 03:52:26;;;;;;;7.97;4.20;;;19.90;99.90;;;;;;4148616;28;20221;-77
2022/10/22 03:54:29;;;;;;;5.68;3.75;;;19.80;99.90;;;;;;4148492;28;20228;-77
2022/10/22 03:56:32;;;;;;;9.30;4.10;;;19.80;99.90;;;;;;4148257;28;20225;-76
2022/10/22 03:58:35;;;;;;;7.28;4.07;;;19.80;99.90;;;;;;4148596;28;20650;-77
2022/10/22 04:00:37;;;;;;;5.43;3.80;;;19.80;99.90;;;;;;4148013;28;20295;-77
2022/10/22 04:02:39;;;;;;;7.55;3.90;;;19.80;99.90;;;;;;4148102;28;20214;-77
2022/10/22 04:04:42;;;;;;;6.72;4.10;;;19.80;99.90;;;;;;4148252;28;20233;-77
2022/10/22 04:06:44;;;;;;;8.18;4.55;;;19.80;99.90;;;;;;4148726;28;20628;-77
2022/10/22 04:08:47;;;;;;;6.30;4.10;;;19.80;99.90;;;;;;4148494;28;20268;-77
2022/10/22 04:10:51;;;;;;;6.68;3.95;;;19.80;99.90;;;;;;4148303;28;20634;-77
2022/10/22 04:12:55;;;;;;;5.93;3.78;;;19.80;99.90;;;;;;4148805;28;20212;-77
2022/10/22 04:14:57;;;;;;;6.20;4.28;;;19.80;99.90;;;;;;4140886;28;20284;-76
2022/10/22 04:16:59;;;;;;;6.30;3.75;;;19.80;99.90;;;;;;4148461;28;20327;-76
2022/10/22 04:19:02;;;;;;;5.35;3.80;;;19.80;99.90;;;;;;4148364;28;20806;-77
2022/10/22 04:21:05;;;;;;;7.65;3.72;;;19.80;99.90;;;;;;4147767;28;20224;-76
2022/10/22 04:23:07;;;;;;;6.25;4.28;;;19.80;99.90;;;;;;4138351;28;20217;-77
2022/10/22 04:25:10;;;;;;;7.22;3.75;;;19.80;99.90;;;;;;4148285;28;20582;-77
2022/10/22 04:27:12;;;;;;;6.75;4.03;;;19.80;99.90;;;;;;4145982;28;20276;-77
2022/10/22 04:29:15;;;;;;;7.00;4.13;;;19.80;99.90;;;;;;4148217;28;20246;-77
2022/10/22 04:31:20;;;;;;;7.60;3.97;;;19.80;99.90;;;;;;4147801;28;20221;-77
2022/10/22 04:33:22;;;;;;;5.68;3.70;;;19.80;99.90;;;;;;4148251;28;20704;-77
2022/10/22 04:35:24;;;;;;;6.30;3.88;;;19.80;99.90;;;;;;4148532;28;20275;-77
2022/10/22 04:37:27;;;;;;;7.60;3.90;;;19.80;99.90;;;;;;4148203;28;20267;-77
2022/10/22 04:39:29;;;;;;;8.60;3.85;;;19.80;99.90;;;;;;4147918;28;20217;-76
2022/10/22 04:41:33;;;;;;;6.68;3.70;;;19.80;99.90;;;;;;4147996;28;20233;-77
2022/10/22 04:43:35;;;;;;;5.70;3.92;;;19.80;99.90;;;;;;4148764;28;20281;-77
2022/10/22 04:45:39;;;;;;;6.55;3.50;;;19.80;99.90;;;;;;4147699;28;20221;-77
2022/10/22 04:47:41;;;;;;;7.13;4.10;;;19.80;99.90;;;;;;4147975;28;20221;-76
2022/10/22 04:49:43;;;;;;;7.22;3.60;;;19.80;99.90;;;;;;4147717;28;20225;-77
2022/10/22 04:51:46;;;;;;;7.65;3.60;;;19.80;99.90;;;;;;4147673;28;20233;-77
2022/10/22 04:53:48;;;;;;;7.55;4.28;;;19.80;99.90;;;;;;4147610;28;20224;-77
2022/10/22 04:55:50;;;;;;;6.72;3.70;;;19.80;99.90;;;;;;4147546;28;20623;-76
2022/10/22 04:57:53;;;;;;;4.95;3.63;;;19.70;99.90;;;;;;4147731;28;20229;-77
2022/10/22 04:59:55;;;;;;;7.90;3.95;;;19.70;99.90;;;;;;4148042;28;20225;-76
2022/10/22 05:01:58;;;;;;;5.20;3.47;;;19.80;99.90;;;;;;4145852;28;20237;-77
2022/10/22 05:04:03;;;;;;;5.63;3.42;;;19.80;99.90;;;;;;4147475;28;20248;-77
2022/10/22 05:06:06;;;;;;;7.60;3.40;;;19.80;99.90;;;;;;4147380;28;20291;-77
2022/10/22 05:08:08;;;;;;;7.20;4.10;;;19.80;99.90;;;;;;4146954;28;20743;-76
2022/10/22 05:10:10;;;;;;;8.35;3.95;;;19.80;99.90;;;;;;4147303;28;20221;-77
2022/10/22 05:12:13;;;;;;;5.45;3.85;;;19.80;99.90;;;;;;4147747;28;20225;-77
2022/10/22 05:14:17;;;;;;;5.68;3.58;;;19.80;99.90;;;;;;4147703;28;20217;-77
2022/10/22 05:16:19;;;;;;;6.07;3.80;;;19.70;99.90;;;;;;4147393;28;20217;-77
2022/10/22 05:18:22;;;;;;;6.97;3.50;;;19.80;99.90;;;;;;4147477;28;20241;-76
2022/10/22 05:20:25;;;;;;;5.68;3.65;;;19.70;99.90;;;;;;4147238;28;20221;-77
2022/10/22 05:22:27;;;;;;;5.25;3.53;;;19.70;99.90;;;;;;4136376;28;20268;-77
2022/10/22 05:24:31;;;;;;;6.15;3.58;;;19.80;99.90;;;;;;4147180;28;20280;-76
2022/10/22 05:26:33;;;;;;;6.32;3.47;;;19.70;99.90;;;;;;4147237;28;20232;-77
2022/10/22 05:28:36;;;;;;;5.70;3.47;;;19.70;99.90;;;;;;4144017;28;20210;-77
2022/10/22 05:30:39;;;;;;;6.32;3.60;;;19.70;99.90;;;;;;4145496;28;20283;-77
2022/10/22 05:32:41;;;;;;;5.75;3.35;;;19.70;99.90;;;;;;4146975;28;20240;-77
2022/10/22 05:34:45;;;;;;;6.68;3.20;;;19.70;99.90;;;;;;4147037;28;20368;-77
2022/10/22 05:36:47;;;;;;;5.82;3.85;;;19.70;99.90;;;;;;4146825;28;20252;-77
2022/10/22 05:38:50;;;;;;;5.63;3.20;;;19.70;99.90;;;;;;4147059;28;20237;-77
2022/10/22 05:40:59;;;;;;;7.22;3.17;;;19.80;99.90;;;;;;4147098;28;20662;-76
2022/10/22 05:43:01;;;;;;;4.75;3.65;;;19.70;99.90;;;;;;4147001;28;20250;-76
2022/10/22 05:45:04;;;;;;;5.18;3.30;;;19.70;99.90;;;;;;4147006;28;20232;-76
2022/10/22 05:47:07;;;;;;;4.45;3.45;;;19.80;99.90;;;;;;4133799;28;20228;-77
2022/10/22 05:49:14;;;;;;;7.43;3.83;;;19.70;99.90;;;;;;4146571;28;20605;-76
2022/10/22 05:51:18;;;;;;;6.13;3.40;;;19.70;99.90;;;;;;4147168;28;20217;-76
2022/10/22 05:53:20;;;;;;;8.00;3.67;;;19.80;99.90;;;;;;4146991;28;20247;-76
2022/10/22 05:55:23;;;;;;;6.20;3.60;;;19.70;99.90;;;;;;4147388;28;20639;-76
2022/10/22 05:57:25;;;;;;;6.85;3.53;;;19.70;99.90;;;;;;4147067;28;20229;-76
2022/10/22 05:59:27;;;;;;;6.68;3.30;;;19.70;99.90;;;;;;4147490;28;20240;-77
2022/10/22 06:01:31;;;;;;;7.03;3.35;;;19.80;99.90;;;;;;4147035;28;20244;-76
2022/10/22 06:03:34;;;;;;;6.97;3.40;;;19.80;99.90;;;;;;4147237;28;20232;-76
2022/10/22 06:05:36;;;;;;;4.65;3.08;;;19.80;99.90;;;;;;4146824;28;20225;-77
2022/10/22 06:07:40;;;;;;;5.65;3.55;;;19.70;99.90;;;;;;4146855;28;20217;-76
2022/10/22 06:09:42;;;;;;;5.93;3.58;;;19.80;99.90;;;;;;4146611;28;20268;-76
2022/10/22 06:11:45;;;;;;;4.60;2.83;;;19.80;99.90;;;;;;4146608;28;20568;-76
2022/10/22 06:13:48;;;;;;;5.18;3.20;;;19.70;99.90;;;;;;4146284;28;20332;-76
2022/10/22 06:15:52;;;;;;;5.43;3.35;;;19.70;99.90;;;;;;4144824;28;20213;-76
2022/10/22 06:17:54;;;;;;;4.93;3.30;;;19.70;99.90;;;;;;4146447;28;20225;-76
2022/10/22 06:19:56;;;;;;;7.25;3.55;;;19.70;99.90;;;;;;4146201;28;20269;-76
2022/10/22 06:21:58;;;;;;;5.90;3.90;;;19.80;99.90;;;;;;4138640;28;20670;-76
2022/10/22 06:24:02;;;;;;;5.63;3.05;;;19.70;99.90;;;;;;4142551;28;20221;-76
2022/10/22 06:26:07;;;;;;;5.97;3.17;;;19.70;99.90;;;;;;4146017;28;20275;-76
2022/10/22 06:28:09;;;;;;;5.60;3.38;;;19.70;99.90;;;;;;4146627;28;20882;-76
2022/10/22 06:30:12;;;;;;;5.20;2.83;;;19.70;99.90;;;;;;4146302;28;20340;-76
2022/10/22 06:32:14;;;;;;;4.65;2.78;;;19.70;99.90;;;;;;4146010;28;20603;-76
2022/10/22 06:34:17;;;;;;;5.68;3.15;;;19.70;99.90;;;;;;4146357;28;20618;-76
2022/10/22 06:36:21;;;;;;;6.65;3.10;;;19.70;99.90;;;;;;4146422;28;20224;-76
2022/10/22 06:38:24;;;;;;;4.93;2.95;;;19.70;99.90;;;;;;4146388;28;20618;-76
2022/10/22 06:40:27;;;;;;;4.05;2.83;;;19.70;99.90;;;;;;4146037;28;20294;-76
2022/10/22 06:42:30;;;;;;;5.05;3.38;;;19.70;99.90;;;;;;4146238;28;20979;-76
2022/10/22 06:44:32;;;;;;;5.82;2.95;;;19.70;99.90;;;;;;4146473;28;20650;-76
2022/10/22 06:46:34;;;;;;;4.97;3.22;;;19.70;99.90;;;;;;4146503;28;20720;-76
2022/10/22 06:48:37;;;;;;;5.72;2.97;;;19.70;99.90;;;;;;4146331;28;20229;-76
2022/10/22 06:50:39;;;;;;;4.72;3.20;;;19.70;99.90;;;;;;4146104;28;20233;-76
2022/10/22 06:52:41;;;;;;;5.78;3.28;;;19.70;99.90;;;;;;4146062;28;20613;-76
2022/10/22 06:54:43;;;;;;;5.35;3.28;;;19.70;99.90;;;;;;4146135;28;20221;-76
2022/10/22 06:56:47;;;;;;;5.95;3.30;;;19.70;99.90;;;;;;4145879;28;20237;-76
2022/10/22 06:58:51;;;;;;;5.43;3.08;;;19.70;99.90;;;;;;4145728;28;20220;-76
2022/10/22 07:01:01;;;;;;;4.40;2.95;;;19.70;99.90;;;;;;4145784;28;20713;-76
2022/10/22 07:03:03;;;;;;;7.25;3.00;;;19.70;99.90;;;;;;4146315;28;20728;-76
2022/10/22 07:05:07;;;;;;;5.43;2.60;;;19.70;99.90;;;;;;4146058;28;20221;-76
2022/10/22 07:07:09;;;;;;;4.65;2.90;;;19.70;99.90;;;;;;4146127;28;20221;-77
2022/10/22 07:09:11;;;;;;;6.03;2.90;;;19.70;99.90;;;;;;4145801;28;20301;-76
2022/10/22 07:11:16;;;;;;;4.05;2.65;;;19.70;99.90;;;;;;4146303;28;20220;-76
2022/10/22 07:13:20;;;;;;;6.07;3.22;;;19.70;99.90;;;;;;4146053;28;20276;-76
2022/10/22 07:15:22;;;;;;;5.57;3.15;;;19.70;99.90;;;;;;4146166;28;20294;-76
2022/10/22 07:17:24;;;;;;;5.72;3.10;;;19.70;99.90;;;;;;4135178;28;20240;-76
2022/10/22 07:19:27;;;;;;;6.35;2.60;;;19.70;99.90;;;;;;4145534;28;20240;-76
2022/10/22 07:21:29;;;;;;;4.97;3.15;;;19.70;99.90;;;;;;4141991;28;20221;-77
2022/10/22 07:23:31;;;;;;;6.25;3.10;;;19.70;99.90;;;;;;4139321;28;20229;-76
2022/10/22 07:25:34;;;;;;;6.70;2.72;;;19.70;99.90;;;;;;4148085;28;20255;-76
2022/10/22 07:27:36;;;;;;;5.78;2.92;;;19.80;99.90;;;;;;4149264;28;20732;-76
2022/10/22 07:29:39;;;;;;;4.63;2.55;;;19.70;99.90;;;;;;4148706;28;20217;-76
2022/10/22 07:31:42;;;;;;;4.40;2.70;;;19.70;99.90;;;;;;4149420;28;20296;-76
2022/10/22 07:33:45;;;;;;;6.25;2.97;;;19.70;99.90;;;;;;4149193;28;20280;-77
2022/10/22 07:35:47;;;;;;;5.75;2.88;;;19.70;99.90;;;;;;4149420;28;20653;-76
2022/10/22 07:37:49;;;;;;;7.18;3.03;;;19.80;99.90;;;;;;4149510;28;20731;-76
2022/10/22 07:39:52;;;;;;;5.85;2.83;;;19.70;99.90;;;;;;4149367;28;20237;-76
2022/10/22 07:41:54;;;;;;;4.55;3.13;;;19.70;99.90;;;;;;4149133;28;20731;-76
2022/10/22 07:43:57;;;;;;;5.10;2.78;;;19.70;99.90;;;;;;4149176;28;20622;-76
2022/10/22 07:46:01;;;;;;;4.28;2.75;;;19.80;99.90;;;;;;4149234;28;20259;-76
2022/10/22 07:48:04;;;;;;;5.57;2.83;;;19.70;99.90;;;;;;4149379;28;20221;-76
2022/10/22 07:50:07;;;;;;;4.68;2.60;;;19.70;99.90;;;;;;4148905;28;20225;-77
2022/10/22 07:52:09;;;;;;;5.32;2.83;;;19.70;99.90;;;;;;4149413;28;20251;-76
2022/10/22 07:54:12;;;;;;;3.95;2.50;;;19.70;99.90;;;;;;4149448;28;20284;-76
2022/10/22 07:56:14;;;;;;;4.95;2.90;;;19.70;99.90;;;;;;4148844;28;20271;-76
2022/10/22 07:58:16;;;;;;;5.45;3.03;;;19.80;99.90;;;;;;4149068;28;20324;-76
2022/10/22 08:00:19;;;;;;;6.35;2.72;;;19.80;99.90;;;;;;4148679;28;20681;-76
2022/10/22 08:02:23;;;;;;;7.40;3.00;;;19.80;99.90;;;;;;4148876;28;20225;-76
2022/10/22 08:04:25;;;;;;;4.90;2.67;;;19.80;99.90;;;;;;4147217;28;20283;-76
2022/10/22 08:06:27;;;;;;;4.55;2.50;;;19.80;99.90;;;;;;4148553;28;20340;-76
2022/10/22 08:08:30;;;;;;;4.47;2.35;;;19.80;99.90;;;;;;4148096;28;20295;-75
2022/10/22 08:10:32;;;;;;;5.65;3.00;;;19.80;99.90;;;;;;4148432;28;20221;-76
2022/10/22 08:12:35;;;;;;;6.22;2.75;;;19.80;99.90;;;;;;4148786;28;20283;-76
2022/10/22 08:14:38;;;;;;;5.72;2.90;;;19.80;99.90;;;;;;4138221;28;20279;-76
2022/10/22 08:16:40;;;;;;;3.50;2.28;;;19.80;99.90;;;;;;4148554;28;20225;-76
2022/10/22 08:18:43;;;;;;;5.28;2.92;;;19.80;99.90;;;;;;4148251;28;20225;-76
2022/10/22 08:20:46;;;;;;;6.25;2.85;;;19.80;99.90;;;;;;4148398;28;20319;-76
2022/10/22 08:22:48;;;;;;;7.65;2.75;;;19.80;99.90;;;;;;4140077;28;20217;-76
2022/10/22 08:24:50;;;;;;;6.60;2.90;;;19.80;99.90;;;;;;4148378;28;20228;-76
2022/10/22 08:26:54;;;;;;;4.25;2.40;;;19.80;99.90;;;;;;4148194;28;20253;-76
2022/10/22 08:28:56;;;;;;;4.53;2.10;;;19.80;99.90;;;;;;4148012;28;20221;-76
2022/10/22 08:30:59;;;;;;;4.60;2.60;;;19.80;99.90;;;;;;4148303;28;20624;-77
2022/10/22 08:33:01;;;;;;;3.72;2.45;;;19.80;99.90;;;;;;4148616;28;20612;-76
2022/10/22 08:35:05;;;;;;;5.97;2.47;;;19.80;99.90;;;;;;4147665;28;20221;-76
2022/10/22 08:37:09;;;;;;;4.95;2.33;;;19.80;99.90;;;;;;4147489;28;20336;-76
2022/10/22 08:39:11;;;;;;;4.22;2.22;;;19.80;99.90;;;;;;4148178;28;20666;-76
2022/10/22 08:41:17;;;;;;;4.32;2.30;;;19.80;99.90;;;;;;4147749;28;20316;-76
2022/10/22 08:43:41;;;;;;;4.82;2.38;;;19.80;99.90;;;;;;4147871;28;20271;-76
2022/10/22 08:45:55;;;;;;;7.47;2.53;;;19.80;99.90;;;;;;4147629;28;20680;-76
2022/10/22 08:48:14;;;;;;;5.97;2.72;;;19.80;99.90;;;;;;4147425;28;20225;-76
2022/10/22 08:50:23;;;;;;;4.97;2.35;;;19.80;99.90;;;;;;4147801;28;20224;-77
2022/10/22 08:52:26;;;;;;;5.18;2.47;;;19.80;99.90;;;;;;4148301;28;20224;-77
2022/10/22 08:54:35;;;;;;;6.10;2.67;;;19.80;99.90;;;;;;4147868;28;20220;-76
2022/10/22 08:56:40;;;;;;;4.18;2.28;;;19.80;99.90;;;;;;4147637;28;20224;-76
2022/10/22 08:58:49;;;;;;;4.28;2.30;;;19.80;99.90;;;;;;4147469;28;20225;-77
2022/10/22 09:00:58;;;;;;;5.13;2.50;;;19.80;99.90;;;;;;4147471;28;20704;-77
2022/10/22 09:03:12;;;;;;;5.25;2.30;;;19.80;99.90;;;;;;4147303;28;20228;-77
2022/10/22 09:05:24;;;;;;;3.45;2.25;;;19.80;99.90;;;;;;4138517;28;20629;-77
2022/10/22 09:07:26;;;;;;;3.88;2.60;;;19.80;99.90;;;;;;4135654;28;20220;-76
2022/10/22 09:09:35;;;;;;;4.75;2.33;;;19.80;99.90;;;;;;4147943;28;20225;-77
2022/10/22 09:11:40;;;;;;;3.97;2.33;;;19.80;99.90;;;;;;4147200;28;20220;-77
2022/10/22 09:13:45;;;;;;;4.28;2.30;;;19.80;99.90;;;;;;4147553;28;20221;-77
2022/10/22 09:15:52;;;;;;;4.45;2.55;;;19.80;99.90;;;;;;4147549;28;20222;-77
2022/10/22 09:18:03;;;;;;;3.78;2.40;;;19.80;99.90;;;;;;4147629;28;20278;-77
2022/10/22 09:20:14;;;;;;;6.85;2.63;;;19.80;99.90;;;;;;4147225;28;20229;-76
2022/10/22 09:22:28;;;;;;;4.72;2.55;;;19.80;99.90;;;;;;4143084;28;20259;-77
2022/10/22 09:24:37;;;;;;;4.93;2.22;;;19.80;99.90;;;;;;4147336;28;20267;-77
2022/10/22 09:26:41;;;;;;;4.05;2.22;;;19.80;99.90;;;;;;4147173;28;20225;-76
2022/10/22 09:28:48;;;;;;;4.47;2.20;;;19.80;99.90;;;;;;4148097;28;20704;-77
2022/10/22 09:30:51;;;;;;;4.18;2.35;;;19.80;99.90;;;;;;4147650;28;20220;-77
2022/10/22 09:32:59;;;;;;;4.10;2.25;;;19.80;99.90;;;;;;4147230;28;20225;-77
2022/10/22 09:35:02;;;;;;;5.40;2.10;;;19.80;99.90;;;;;;4146865;28;20283;-77
2022/10/22 09:37:06;;;;;;;3.70;2.17;;;19.80;99.90;;;;;;4147182;28;20298;-77
2022/10/22 09:39:24;;;;;;;4.03;2.03;;;19.80;99.90;;;;;;4146915;28;20271;-77
2022/10/22 09:41:29;;;;;;;4.03;2.13;;;19.80;99.90;;;;;;4146636;28;20327;-77
2022/10/22 09:43:32;;;;;;;5.05;2.50;;;19.80;99.90;;;;;;4146762;28;20225;-77
2022/10/22 09:45:34;;;;;;;7.65;2.30;;;19.80;99.90;;;;;;4146647;28;20228;-76
2022/10/22 09:47:40;;;;;;;4.97;2.33;;;19.80;99.90;;;;;;4146661;28;20621;-77
2022/10/22 09:49:43;;;;;;;4.43;2.45;;;19.80;99.90;;;;;;4147150;28;20248;-77
2022/10/22 09:51:54;;;;;;;4.07;2.00;;;19.80;99.90;;;;;;4144626;28;20213;-77
2022/10/22 09:53:58;;;;;;;5.80;2.70;;;19.80;99.90;;;;;;4147238;28;20233;-77
2022/10/22 09:56:08;;;;;;;4.40;2.42;;;19.80;99.90;;;;;;4147187;28;20221;-77
2022/10/22 09:58:13;;;;;;;5.00;2.40;;;19.80;99.90;;;;;;4146804;28;20271;-76
2022/10/22 10:00:19;;;;;;;4.22;2.22;;;19.80;99.90;;;;;;4146601;28;20221;-77
2022/10/22 10:02:24;;;;;;;5.15;2.28;;;19.80;99.90;;;;;;4146602;28;20249;-77
2022/10/22 10:04:26;;;;;;;6.07;2.17;;;19.80;99.90;;;;;;4146493;28;20229;-77
2022/10/22 10:06:32;;;;;;;4.47;2.33;;;19.80;99.90;;;;;;4146995;28;20228;-77
2022/10/22 10:08:34;;;;;;;3.80;2.10;;;19.80;99.90;;;;;;4146744;28;20731;-77
2022/10/22 10:10:45;;;;;;;3.92;2.30;;;19.90;99.90;;;;;;4146432;28;20221;-77
2022/10/22 10:12:54;;;;;;;6.03;2.53;;;19.80;99.90;;;;;;4146793;28;20684;-77
2022/10/22 10:15:07;;;;;;;4.07;2.08;;;19.80;99.90;;;;;;4146743;28;20286;-77
2022/10/22 10:17:22;;;;;;;6.63;2.53;;;19.80;99.90;;;;;;4146553;28;20225;-77
2022/10/22 10:19:40;;;;;;;6.45;2.20;;;19.80;99.90;;;;;;4146600;28;20607;-77
2022/10/22 10:21:52;;;;;;;6.05;2.58;;;19.90;99.90;;;;;;4141798;28;20245;-77
2022/10/22 10:24:00;;;;;;;3.95;1.95;;;19.90;99.90;;;;;;4146396;28;20221;-77
2022/10/22 10:26:09;;;;;;;8.25;2.55;;;19.80;99.90;;;;;;4146381;28;20633;-77
2022/10/22 10:28:40;;;;;;;5.05;2.33;;;19.80;99.90;;;;;;4146598;28;20251;-77
2022/10/22 10:30:48;;;;;;;5.97;2.35;;;19.90;99.90;;;;;;4144267;28;20252;-77
2022/10/22 10:33:02;;;;;;;4.22;2.05;;;19.90;99.90;;;;;;4146222;28;20212;-77
2022/10/22 10:35:19;;;;;;;4.10;2.30;;;19.90;99.90;;;;;;4146786;28;20728;-77
2022/10/22 10:37:24;;;;;;;6.68;2.38;;;19.90;99.90;;;;;;4146990;28;20220;-76
2022/10/22 10:39:33;;;;;;;4.95;2.47;;;19.90;99.90;;;;;;4146947;28;20276;-76
2022/10/22 10:41:49;;;;;;;4.13;2.10;;;19.90;99.90;;;;;;4146369;28;20240;-77
2022/10/22 10:44:06;;;;;;;4.00;2.17;;;19.90;99.90;;;;;;4146517;28;20267;-77
2022/10/22 10:46:19;;;;;;;4.05;2.42;;;19.90;99.90;;;;;;4146398;28;20275;-77
2022/10/22 10:48:38;;;;;;;4.10;2.20;;;19.90;99.90;;;;;;4146548;28;20625;-77